Time;durP1;ratioP1;P1;durP2;ratioP2;P2;SDS_P1;SDS_P2;PMS_P1;PMS_P2;Temp;Humidity;BMP_temperature;BMP_pressure;BME280_temperature;BME280_humidity;BME280_pressure;Samples;Min_cycle;Max_cycle;Signal;HPM_P1;HPM_P2
2022/06/22 00:01:26;;;;;;;2.53;2.25;;;17.60;99.90;;;;;;5035919;28;20187;-75
2022/06/22 00:03:55;;;;;;;6.03;2.20;;;17.50;99.90;;;;;;5035338;28;20259;-74
2022/06/22 00:06:41;;;;;;;3.13;2.33;;;17.60;99.90;;;;;;5035377;28;20193;-74
2022/06/22 00:09:21;;;;;;;2.92;2.10;;;17.60;99.90;;;;;;5035517;28;20192;-75
2022/06/22 00:11:47;;;;;;;3.92;2.13;;;17.60;99.90;;;;;;5035141;28;20192;-75
2022/06/22 00:14:19;;;;;;;2.72;2.35;;;17.60;99.90;;;;;;5035334;28;20196;-75
2022/06/22 00:16:51;;;;;;;7.57;2.25;;;17.50;99.90;;;;;;5034957;28;20211;-74
2022/06/22 00:19:44;;;;;;;3.65;2.17;;;17.50;99.90;;;;;;5035035;28;20576;-75
2022/06/22 00:22:20;;;;;;;2.35;2.10;;;17.50;99.90;;;;;;5035063;28;20239;-73
2022/06/22 00:24:53;;;;;;;4.25;2.13;;;17.40;99.90;;;;;;5034929;28;20216;-74
2022/06/22 00:27:31;;;;;;;2.70;2.13;;;17.80;99.90;;;;;;5034594;28;20184;-74
2022/06/22 00:30:11;;;;;;;5.45;2.53;;;17.60;99.90;;;;;;5035510;28;20180;-76
2022/06/22 00:32:37;;;;;;;3.28;2.05;;;17.50;99.90;;;;;;5034687;28;20180;-74
2022/06/22 00:35:40;;;;;;;2.90;2.17;;;17.60;99.90;;;;;;5034773;28;20616;-74
2022/06/22 00:38:06;;;;;;;2.30;2.00;;;17.60;99.90;;;;;;5034454;28;20207;-74
2022/06/22 00:40:36;;;;;;;2.42;2.05;;;17.60;99.90;;;;;;5034724;28;20185;-75
2022/06/22 00:43:02;;;;;;;3.83;2.33;;;17.60;99.90;;;;;;5034857;28;20223;-76
2022/06/22 00:45:31;;;;;;;3.53;2.35;;;17.40;99.90;;;;;;5034775;28;20181;-75
2022/06/22 00:48:23;;;;;;;4.20;2.10;;;17.30;99.90;;;;;;5034997;28;20200;-73
2022/06/22 00:50:58;;;;;;;2.53;2.25;;;17.50;99.90;;;;;;5034520;28;20192;-74
2022/06/22 00:53:35;;;;;;;3.17;2.28;;;17.50;99.90;;;;;;5034336;28;20616;-75
2022/06/22 00:56:19;;;;;;;4.60;2.33;;;17.80;99.90;;;;;;5034681;28;20188;-75
2022/06/22 00:58:58;;;;;;;3.65;1.90;;;17.80;99.90;;;;;;5034173;28;20187;-74
2022/06/22 01:01:40;;;;;;;3.63;2.30;;;17.80;99.90;;;;;;5033843;28;20235;-75
2022/06/22 01:04:12;;;;;;;2.90;2.00;;;17.80;99.90;;;;;;5033681;28;20227;-74
2022/06/22 01:06:58;;;;;;;5.25;2.33;;;17.70;99.90;;;;;;5034123;28;20253;-74
2022/06/22 01:09:37;;;;;;;2.85;2.00;;;17.50;99.90;;;;;;5034261;28;20192;-75
2022/06/22 01:12:18;;;;;;;3.22;2.30;;;17.90;99.90;;;;;;5033922;28;20180;-75
2022/06/22 01:15:01;;;;;;;2.20;2.00;;;17.80;99.90;;;;;;5034180;28;20211;-75
2022/06/22 01:17:43;;;;;;;6.18;2.22;;;17.50;99.90;;;;;;5033990;28;20184;-74
2022/06/22 01:20:27;;;;;;;3.10;2.00;;;17.50;99.90;;;;;;5034142;28;20188;-76
2022/06/22 01:23:24;;;;;;;2.40;2.00;;;17.60;99.90;;;;;;5034664;28;20690;-73
2022/06/22 01:26:24;;;;;;;2.13;2.03;;;17.60;99.90;;;;;;5037000;28;20181;-74
2022/06/22 01:28:58;;;;;;;3.00;2.03;;;17.50;99.90;;;;;;5042128;28;20231;-75
2022/06/22 01:31:23;;;;;;;2.22;2.00;;;17.50;99.90;;;;;;5041722;28;20260;-74
2022/06/22 01:33:51;;;;;;;3.83;2.00;;;17.70;99.90;;;;;;5045154;28;20188;-75
2022/06/22 01:36:25;;;;;;;2.97;2.22;;;17.50;99.90;;;;;;5044605;28;20183;-76
2022/06/22 01:38:51;;;;;;;3.25;2.30;;;17.30;99.90;;;;;;5036054;28;20191;-75
2022/06/22 01:41:53;;;;;;;3.67;2.08;;;17.20;99.90;;;;;;5034125;28;20176;-74
2022/06/22 01:44:30;;;;;;;2.22;2.00;;;17.10;99.90;;;;;;5034311;28;20258;-75
2022/06/22 01:47:20;;;;;;;2.92;2.22;;;17.40;99.90;;;;;;5033867;28;20191;-75
2022/06/22 01:50:17;;;;;;;2.13;1.90;;;17.50;99.90;;;;;;5033396;28;20264;-74
2022/06/22 01:52:53;;;;;;;2.45;2.15;;;17.50;99.90;;;;;;5033519;28;20176;-75
2022/06/22 01:55:42;;;;;;;1.95;1.83;;;17.30;99.90;;;;;;5033718;28;20183;-74
2022/06/22 01:58:16;;;;;;;4.45;2.05;;;17.30;99.90;;;;;;5033454;28;20183;-74
2022/06/22 02:00:48;;;;;;;5.05;2.50;;;17.30;99.90;;;;;;5033147;28;20180;-74
2022/06/22 02:03:21;;;;;;;3.28;2.05;;;17.30;99.90;;;;;;5033132;28;20758;-75
2022/06/22 02:07:44;;;;;;;5.93;2.25;;;17.10;99.90;;;;;;5033470;28;20176;-75
2022/06/22 02:08:57;;;;;;;2.55;2.10;;;17.10;99.90;;;;;;5032707;28;20186;-75
2022/06/22 02:11:27;;;;;;;2.38;2.17;;;17.30;99.90;;;;;;5033261;28;20181;-76
2022/06/22 02:14:09;;;;;;;4.95;2.15;;;17.20;99.90;;;;;;5033067;28;20176;-75
2022/06/22 02:16:56;;;;;;;3.00;2.40;;;17.40;99.90;;;;;;5033974;28;20201;-77
2022/06/22 02:19:22;;;;;;;2.88;2.10;;;17.50;99.90;;;;;;5033635;28;20176;-75
2022/06/22 02:21:52;;;;;;;3.53;2.00;;;17.60;99.90;;;;;;5033519;28;20511;-73
2022/06/22 02:24:38;;;;;;;3.85;2.10;;;17.60;99.90;;;;;;5034362;28;20232;-76
2022/06/22 02:27:07;;;;;;;3.47;2.13;;;17.70;99.90;;;;;;5033411;28;20188;-75
2022/06/22 02:29:39;;;;;;;2.05;1.83;;;17.50;99.90;;;;;;5033792;28;20220;-75
2022/06/22 02:32:09;;;;;;;3.08;2.00;;;17.20;99.90;;;;;;5036760;28;20179;-74
2022/06/22 02:34:36;;;;;;;2.35;2.15;;;17.30;99.90;;;;;;5036985;28;20251;-76
2022/06/22 02:37:05;;;;;;;3.92;2.17;;;17.10;99.90;;;;;;5036866;28;20209;-73
2022/06/22 02:39:34;;;;;;;2.38;2.17;;;17.20;99.90;;;;;;5036920;28;20187;-76
2022/06/22 02:44:46;;;;;;;5.65;2.47;;;17.30;99.90;;;;;;5037009;28;20310;-75
2022/06/22 02:47:29;;;;;;;3.70;2.05;;;17.20;99.90;;;;;;5036918;28;20204;-76
2022/06/22 02:50:14;;;;;;;2.50;2.20;;;17.30;99.90;;;;;;5036928;28;20200;-74
2022/06/22 02:52:54;;;;;;;2.35;2.03;;;17.30;99.90;;;;;;5037027;28;20188;-74
2022/06/22 02:55:23;;;;;;;2.42;2.03;;;17.30;99.90;;;;;;5036844;28;20240;-74
2022/06/22 02:57:51;;;;;;;2.78;2.15;;;17.50;99.90;;;;;;5036537;28;20697;-74
2022/06/22 03:00:22;;;;;;;2.13;1.92;;;17.00;99.90;;;;;;5036329;28;20208;-76
2022/06/22 03:02:50;;;;;;;2.75;1.92;;;17.10;99.90;;;;;;5036576;28;20192;-75
2022/06/22 03:05:17;;;;;;;2.67;2.00;;;17.20;99.90;;;;;;5036258;28;20189;-75
2022/06/22 03:07:47;;;;;;;2.25;2.00;;;17.20;99.90;;;;;;5036694;28;20565;-74
2022/06/22 03:10:30;;;;;;;3.80;2.30;;;17.20;99.90;;;;;;5036161;28;20243;-74
2022/06/22 03:12:59;;;;;;;2.67;2.20;;;17.30;99.90;;;;;;5035957;28;20640;-74
2022/06/22 03:15:30;;;;;;;2.45;2.25;;;17.20;99.90;;;;;;5036811;28;20303;-74
2022/06/22 03:17:57;;;;;;;3.75;2.00;;;17.00;99.90;;;;;;5036472;28;20222;-74
2022/06/22 03:20:27;;;;;;;4.50;2.25;;;17.10;99.90;;;;;;5036385;28;20677;-73
2022/06/22 03:22:57;;;;;;;2.88;2.30;;;17.30;99.90;;;;;;5037257;28;20181;-75
2022/06/22 03:25:35;;;;;;;2.38;1.90;;;17.20;99.90;;;;;;5039184;28;20242;-74
2022/06/22 03:28:09;;;;;;;6.70;2.63;;;17.50;99.90;;;;;;5048854;28;20656;-75
2022/06/22 03:30:50;;;;;;;3.17;2.20;;;17.40;99.90;;;;;;5042846;28;20177;-75
2022/06/22 03:33:32;;;;;;;2.70;2.25;;;17.80;99.90;;;;;;5041087;28;20180;-74
2022/06/22 03:36:18;;;;;;;3.40;2.20;;;17.80;99.90;;;;;;5042231;28;20256;-76
2022/06/22 03:38:50;;;;;;;3.78;2.15;;;18.20;99.90;;;;;;5040925;28;20259;-74
2022/06/22 03:41:20;;;;;;;2.30;2.10;;;17.70;99.90;;;;;;5035741;28;20177;-74
2022/06/22 03:43:54;;;;;;;2.58;2.10;;;17.60;99.90;;;;;;5035591;28;20671;-74
2022/06/22 03:46:43;;;;;;;2.65;2.03;;;17.60;99.90;;;;;;5035841;28;20264;-74
2022/06/22 03:49:19;;;;;;;2.35;2.13;;;17.50;99.90;;;;;;5035965;28;20181;-75
2022/06/22 03:51:53;;;;;;;2.50;2.05;;;17.60;99.90;;;;;;5035403;28;20283;-74
2022/06/22 03:54:33;;;;;;;2.72;2.30;;;17.60;99.90;;;;;;5034965;28;20409;-73
2022/06/22 03:57:03;;;;;;;3.30;2.35;;;17.70;99.90;;;;;;5036021;28;20239;-74
2022/06/22 03:59:30;;;;;;;3.22;2.22;;;17.70;99.90;;;;;;5035652;28;20181;-74
2022/06/22 04:01:56;;;;;;;2.55;2.03;;;17.70;99.90;;;;;;5035324;28;20183;-74
2022/06/22 04:04:23;;;;;;;3.20;2.47;;;17.70;99.90;;;;;;5036484;28;20216;-74
2022/06/22 04:06:53;;;;;;;2.75;2.25;;;17.70;99.90;;;;;;5036058;28;20192;-75
2022/06/22 04:09:21;;;;;;;2.13;1.95;;;17.50;99.90;;;;;;5035764;28;20185;-75
2022/06/22 04:11:58;;;;;;;2.30;2.10;;;17.60;99.90;;;;;;5035675;28;20191;-74
2022/06/22 04:14:43;;;;;;;7.28;2.40;;;17.70;99.90;;;;;;5035542;28;20276;-74
2022/06/22 04:17:15;;;;;;;2.60;2.40;;;17.60;99.90;;;;;;5035809;28;20189;-74
2022/06/22 04:19:47;;;;;;;3.33;2.30;;;17.70;99.90;;;;;;5035333;28;20689;-75
2022/06/22 04:22:19;;;;;;;4.47;2.47;;;17.70;99.90;;;;;;5035314;28;20549;-75
2022/06/22 04:24:47;;;;;;;4.63;2.30;;;17.70;99.90;;;;;;5035371;28;20303;-75
2022/06/22 04:27:24;;;;;;;2.92;2.50;;;17.60;99.90;;;;;;5035033;28;20181;-74
2022/06/22 04:30:03;;;;;;;4.78;2.55;;;17.80;99.90;;;;;;5035303;28;20603;-75
2022/06/22 04:32:43;;;;;;;3.10;2.20;;;17.70;99.90;;;;;;5035256;28;20386;-75
2022/06/22 04:35:33;;;;;;;3.20;2.25;;;17.70;99.90;;;;;;5034842;28;20203;-74
2022/06/22 04:38:10;;;;;;;4.85;2.40;;;17.70;99.90;;;;;;5035274;28;20184;-75
2022/06/22 04:41:07;;;;;;;2.47;2.28;;;17.60;99.90;;;;;;5034735;28;20180;-75
2022/06/22 04:43:36;;;;;;;7.40;2.55;;;17.90;99.90;;;;;;5034709;28;20316;-74
2022/06/22 04:46:01;;;;;;;3.35;2.60;;;17.80;99.90;;;;;;5034696;28;20184;-76
2022/06/22 04:48:34;;;;;;;6.82;2.58;;;17.90;99.90;;;;;;5035079;28;20176;-75
2022/06/22 04:51:03;;;;;;;3.63;2.17;;;17.80;99.90;;;;;;5034729;28;20181;-75
2022/06/22 04:53:36;;;;;;;3.60;2.45;;;17.90;99.90;;;;;;5033962;28;20523;-75
2022/06/22 04:56:06;;;;;;;5.28;2.80;;;18.00;99.90;;;;;;5034393;28;20177;-75
2022/06/22 04:58:51;;;;;;;4.05;2.40;;;17.80;99.90;;;;;;5034257;28;20200;-75
2022/06/22 05:01:28;;;;;;;3.78;2.08;;;17.80;99.90;;;;;;5034405;28;20187;-75
2022/06/22 05:04:03;;;;;;;2.10;1.90;;;18.30;99.90;;;;;;5034617;28;20224;-75
2022/06/22 05:06:37;;;;;;;4.32;2.45;;;18.20;99.90;;;;;;5034465;28;20268;-75
2022/06/22 05:09:10;;;;;;;4.65;2.50;;;18.40;99.90;;;;;;5034102;28;20176;-75
2022/06/22 05:11:48;;;;;;;3.15;2.40;;;18.40;99.90;;;;;;5034724;28;20184;-75
2022/06/22 05:14:27;;;;;;;2.97;2.42;;;18.80;99.90;;;;;;5034678;28;20176;-75
2022/06/22 05:17:00;;;;;;;7.55;2.75;;;18.80;99.90;;;;;;5033986;28;20177;-75
2022/06/22 05:19:39;;;;;;;2.65;2.33;;;18.60;99.90;;;;;;5035142;28;20263;-75
2022/06/22 05:22:13;;;;;;;3.53;2.47;;;18.50;99.90;;;;;;5035796;28;20188;-75
2022/06/22 05:24:43;;;;;;;8.00;2.92;;;18.50;99.90;;;;;;5038792;28;20220;-75
2022/06/22 05:27:12;;;;;;;3.97;2.30;;;18.40;99.90;;;;;;5045958;28;20293;-75
2022/06/22 05:29:43;;;;;;;3.53;2.60;;;18.90;99.90;;;;;;5002721;28;20198;-76
2022/06/22 05:32:13;;;;;;;3.35;2.22;;;19.10;99.90;;;;;;5008150;28;20588;-73
2022/06/22 05:34:41;;;;;;;3.25;2.22;;;19.30;99.90;;;;;;4996234;28;20190;-75
2022/06/22 05:37:12;;;;;;;2.50;2.13;;;19.20;99.90;;;;;;4995016;28;20182;-74
2022/06/22 05:39:39;;;;;;;4.68;2.70;;;19.20;99.90;;;;;;4995719;28;20205;-76
2022/06/22 05:42:06;;;;;;;4.72;2.80;;;19.30;99.90;;;;;;4994649;28;20263;-75
2022/06/22 05:44:33;;;;;;;2.45;2.22;;;19.40;99.90;;;;;;4994650;28;20218;-76
2022/06/22 05:47:00;;;;;;;2.85;2.03;;;19.40;99.90;;;;;;4994252;28;20182;-75
2022/06/22 05:49:40;;;;;;;5.75;2.60;;;19.20;99.90;;;;;;4994473;28;20192;-75
2022/06/22 05:52:13;;;;;;;6.75;2.42;;;19.40;99.90;;;;;;4994273;28;20182;-74
2022/06/22 05:54:47;;;;;;;4.22;2.15;;;19.00;99.90;;;;;;4994477;28;20269;-72
2022/06/22 05:57:21;;;;;;;3.92;1.90;;;19.00;99.90;;;;;;4994085;28;20182;-73
2022/06/22 05:59:52;;;;;;;3.00;2.08;;;18.90;99.90;;;;;;4994959;28;20189;-75
2022/06/22 06:02:37;;;;;;;4.60;1.80;;;18.90;99.90;;;;;;4995641;28;20182;-72
2022/06/22 06:05:10;;;;;;;4.35;2.00;;;19.00;99.90;;;;;;4993994;28;20240;-72
2022/06/22 06:07:41;;;;;;;4.82;2.03;;;19.10;99.90;;;;;;4994323;28;20174;-74
2022/06/22 06:10:15;;;;;;;2.10;1.90;;;19.10;99.90;;;;;;4994193;28;20182;-74
2022/06/22 06:12:48;;;;;;;3.85;2.45;;;19.20;99.90;;;;;;4994481;28;20174;-73
2022/06/22 06:15:14;;;;;;;3.45;2.15;;;19.10;99.90;;;;;;4996862;28;20240;-73
2022/06/22 06:17:45;;;;;;;2.03;1.83;;;19.30;99.90;;;;;;4994039;28;20261;-73
2022/06/22 06:20:28;;;;;;;2.13;1.90;;;19.60;99.90;;;;;;4993744;28;20239;-72
2022/06/22 06:23:00;;;;;;;2.20;1.80;;;19.90;99.90;;;;;;4993868;28;20645;-73
2022/06/22 06:28:45;;;;;;;5.88;1.80;;;20.50;99.90;;;;;;5011533;28;20239;-73
2022/06/22 06:31:54;;;;;;;1.95;1.83;;;20.30;99.90;;;;;;5033405;28;20189;-74
2022/06/22 06:34:25;;;;;;;3.50;1.90;;;20.30;99.90;;;;;;4994610;28;20196;-73
2022/06/22 06:36:58;;;;;;;2.55;1.70;;;20.20;99.90;;;;;;5035050;28;20711;-72
2022/06/22 06:39:28;;;;;;;2.55;1.60;;;20.10;99.90;;;;;;5033146;28;20634;-72
2022/06/22 06:42:06;;;;;;;6.30;1.88;;;20.20;99.90;;;;;;5032724;28;20181;-72
2022/06/22 06:44:37;;;;;;;5.18;1.80;;;20.20;99.90;;;;;;5033110;28;20231;-73
2022/06/22 06:47:06;;;;;;;1.80;1.70;;;20.10;99.90;;;;;;5033269;28;20264;-73
2022/06/22 06:49:49;;;;;;;2.88;2.28;;;20.10;99.90;;;;;;5033226;28;20204;-72
2022/06/22 06:52:42;;;;;;;1.83;1.50;;;20.20;99.90;;;;;;5032857;28;20177;-73
2022/06/22 06:55:13;;;;;;;2.20;1.73;;;20.20;99.90;;;;;;5032814;28;20173;-72
2022/06/22 06:57:47;;;;;;;5.32;2.40;;;20.30;99.90;;;;;;5033147;28;20199;-72
2022/06/22 07:00:13;;;;;;;2.60;1.70;;;20.30;99.90;;;;;;5032884;28;20690;-72
2022/06/22 07:02:41;;;;;;;1.88;1.50;;;20.40;99.90;;;;;;5033121;28;20173;-73
2022/06/22 07:05:14;;;;;;;3.30;1.60;;;20.40;99.90;;;;;;5033073;28;20307;-72
2022/06/22 07:08:00;;;;;;;6.80;1.80;;;20.50;99.90;;;;;;5032994;28;20551;-73
2022/06/22 07:10:34;;;;;;;2.03;1.60;;;20.60;99.90;;;;;;5032924;28;20181;-71
2022/06/22 07:13:17;;;;;;;6.00;1.80;;;20.70;99.90;;;;;;5032571;28;20639;-72
2022/06/22 07:15:48;;;;;;;10.30;3.40;;;20.90;99.90;;;;;;5033452;28;20176;-72
2022/06/22 07:18:26;;;;;;;4.65;2.85;;;20.80;99.90;;;;;;5036759;28;20651;-72
2022/06/22 07:21:13;;;;;;;13.50;6.80;;;20.90;99.30;;;;;;5038061;28;20183;-73
2022/06/22 07:23:51;;;;;;;4.35;3.08;;;21.00;99.50;;;;;;5039423;28;20255;-73
2022/06/22 07:26:37;;;;;;;5.72;2.42;;;21.10;98.20;;;;;;5042469;28;20168;-72
2022/06/22 07:29:22;;;;;;;4.07;2.10;;;21.10;98.60;;;;;;5043908;28;20258;-72
2022/06/22 07:31:57;;;;;;;2.72;1.65;;;21.10;97.10;;;;;;5045664;28;20199;-73
2022/06/22 07:34:34;;;;;;;3.45;1.60;;;21.10;97.60;;;;;;5046350;28;20256;-73
2022/06/22 07:37:09;;;;;;;7.40;2.40;;;21.20;98.20;;;;;;5047048;28;20184;-73
2022/06/22 07:39:42;;;;;;;2.25;1.40;;;21.30;96.10;;;;;;5047760;28;20285;-72
2022/06/22 07:42:12;;;;;;;2.60;1.80;;;21.50;95.30;;;;;;5043871;28;20208;-71
2022/06/22 07:44:38;;;;;;;2.33;1.60;;;21.70;95.00;;;;;;5047090;28;20220;-73
2022/06/22 07:47:17;;;;;;;1.95;1.48;;;21.80;94.30;;;;;;5045004;28;20240;-73
2022/06/22 07:49:51;;;;;;;3.92;1.42;;;21.80;94.30;;;;;;5036564;28;20617;-72
2022/06/22 07:52:22;;;;;;;2.63;1.92;;;21.80;94.40;;;;;;5036322;28;20240;-73
2022/06/22 07:55:06;;;;;;;1.98;1.38;;;22.00;93.70;;;;;;5036418;28;20176;-73
2022/06/22 07:57:47;;;;;;;7.47;1.60;;;22.10;93.30;;;;;;5035631;28;20673;-73
2022/06/22 08:00:16;;;;;;;2.63;1.40;;;22.30;90.70;;;;;;5035938;28;20184;-73
2022/06/22 08:03:03;;;;;;;5.50;1.60;;;22.50;92.20;;;;;;5036234;28;20173;-73
2022/06/22 08:05:33;;;;;;;3.95;1.40;;;22.70;90.00;;;;;;5035714;28;20278;-72
2022/06/22 08:08:01;;;;;;;2.83;1.52;;;23.00;88.80;;;;;;5036116;28;20208;-72
2022/06/22 08:10:38;;;;;;;2.30;1.50;;;23.20;89.70;;;;;;5035785;28;20520;-73
2022/06/22 08:13:11;;;;;;;3.42;1.52;;;23.50;85.70;;;;;;5035211;28;20176;-73
2022/06/22 08:15:42;;;;;;;3.35;1.58;;;23.40;82.80;;;;;;5036115;28;20188;-72
2022/06/22 08:18:09;;;;;;;3.60;1.60;;;23.50;81.90;;;;;;5035579;28;20181;-71
2022/06/22 08:20:38;;;;;;;1.55;1.40;;;23.60;82.10;;;;;;5035802;28;20524;-72
2022/06/22 08:23:06;;;;;;;1.52;1.42;;;23.80;79.80;;;;;;5036678;28;20274;-72
2022/06/22 08:25:33;;;;;;;2.35;1.65;;;24.00;80.20;;;;;;5036183;28;20185;-71
2022/06/22 08:28:01;;;;;;;4.00;2.03;;;24.10;79.10;;;;;;5035655;28;20309;-72
2022/06/22 08:30:27;;;;;;;1.88;1.63;;;23.90;77.20;;;;;;5036388;28;20212;-73
2022/06/22 08:33:06;;;;;;;1.73;1.60;;;24.00;77.00;;;;;;5001596;28;20592;-72
2022/06/22 08:35:41;;;;;;;1.88;1.60;;;24.00;76.10;;;;;;5035463;28;20268;-72
2022/06/22 08:38:20;;;;;;;4.72;1.70;;;24.30;78.60;;;;;;5034923;28;20180;-72
2022/06/22 08:41:00;;;;;;;4.57;1.60;;;24.40;75.10;;;;;;5035512;28;20223;-73
2022/06/22 08:43:51;;;;;;;2.63;1.67;;;24.40;73.50;;;;;;5034581;28;20648;-72
2022/06/22 08:46:44;;;;;;;4.63;1.65;;;24.60;72.70;;;;;;5035192;28;20297;-73
2022/06/22 08:49:17;;;;;;;6.75;1.73;;;24.60;72.40;;;;;;5034806;28;20177;-73
2022/06/22 08:52:00;;;;;;;2.33;1.40;;;24.60;69.20;;;;;;5035308;28;20172;-73
2022/06/22 08:55:09;;;;;;;2.50;1.60;;;24.50;68.40;;;;;;5034980;28;20187;-73
2022/06/22 08:58:00;;;;;;;2.28;1.75;;;24.90;69.80;;;;;;5035670;28;20327;-73
2022/06/22 09:00:49;;;;;;;3.00;1.50;;;25.00;67.00;;;;;;5034930;28;20185;-74
2022/06/22 09:03:31;;;;;;;2.88;1.80;;;24.50;66.10;;;;;;5034704;28;20177;-73
2022/06/22 09:06:26;;;;;;;1.88;1.58;;;24.80;68.00;;;;;;5035071;28;20224;-73
2022/06/22 09:09:18;;;;;;;3.92;1.80;;;24.90;65.90;;;;;;5034538;28;20592;-73
2022/06/22 09:12:06;;;;;;;7.03;1.85;;;25.00;67.00;;;;;;5034494;28;20181;-72
2022/06/22 09:14:51;;;;;;;3.50;1.50;;;25.10;65.20;;;;;;5033871;28;20652;-73
2022/06/22 09:17:59;;;;;;;2.28;1.60;;;25.10;63.50;;;;;;5034067;28;20678;-73
2022/06/22 09:20:41;;;;;;;3.38;1.90;;;25.30;64.80;;;;;;5034300;28;20181;-74
2022/06/22 09:23:45;;;;;;;2.92;1.85;;;25.80;64.30;;;;;;5033636;28;20579;-73
2022/06/22 09:26:33;;;;;;;4.20;1.70;;;25.80;61.40;;;;;;4953713;28;20655;-73
2022/06/22 09:29:28;;;;;;;1.83;1.70;;;25.50;61.40;;;;;;5031392;28;20269;-73
2022/06/22 09:32:26;;;;;;;6.78;1.77;;;25.30;63.90;;;;;;5019891;28;20206;-73
2022/06/22 09:35:02;;;;;;;1.90;1.63;;;25.20;63.30;;;;;;5033677;28;20177;-72
2022/06/22 09:37:34;;;;;;;2.20;1.50;;;25.60;63.10;;;;;;5033894;28;20202;-74
2022/06/22 09:40:37;;;;;;;3.60;1.88;;;25.60;62.40;;;;;;5033492;28;20175;-73
2022/06/22 09:43:13;;;;;;;4.82;1.65;;;25.40;58.50;;;;;;5033274;28;20180;-71
2022/06/22 09:45:57;;;;;;;8.65;1.90;;;25.40;58.90;;;;;;5033775;28;20199;-73
2022/06/22 09:48:42;;;;;;;1.52;1.40;;;25.50;59.10;;;;;;5033342;28;20631;-73
2022/06/22 09:51:31;;;;;;;1.98;1.52;;;25.50;58.00;;;;;;5033386;28;20180;-72
2022/06/22 09:57:16;;;;;;;2.17;1.65;;;26.00;58.30;;;;;;5033083;28;20188;-72
2022/06/22 10:00:10;;;;;;;2.40;1.65;;;26.30;58.10;;;;;;5034017;28;20180;-72
2022/06/22 10:02:54;;;;;;;1.80;1.48;;;26.10;56.70;;;;;;5033806;28;20187;-75
2022/06/22 10:05:49;;;;;;;1.65;1.55;;;26.20;54.50;;;;;;5032962;28;20705;-73
2022/06/22 10:08:36;;;;;;;3.72;1.73;;;26.30;54.30;;;;;;5033542;28;20218;-74
2022/06/22 10:11:32;;;;;;;2.25;1.58;;;26.80;53.70;;;;;;5032882;28;20598;-74
2022/06/22 10:14:04;;;;;;;3.25;1.67;;;26.70;52.80;;;;;;5033424;28;20674;-73
2022/06/22 10:16:48;;;;;;;2.30;1.58;;;27.20;53.10;;;;;;5032856;28;20527;-73
2022/06/22 10:19:47;;;;;;;1.50;1.40;;;27.30;52.40;;;;;;5033336;28;20184;-74
2022/06/22 10:22:38;;;;;;;4.07;1.83;;;27.10;50.20;;;;;;5033975;28;20184;-74
2022/06/22 10:25:34;;;;;;;2.38;1.55;;;27.20;49.80;;;;;;5033033;28;20302;-73
2022/06/22 10:28:31;;;;;;;3.88;1.58;;;27.20;49.50;;;;;;5033753;28;20290;-73
2022/06/22 10:31:24;;;;;;;3.05;2.05;;;27.20;49.70;;;;;;5000798;28;20692;-73
2022/06/22 10:34:23;;;;;;;3.55;1.70;;;27.10;48.70;;;;;;5032823;28;20265;-73
2022/06/22 10:37:19;;;;;;;2.30;1.55;;;27.50;47.30;;;;;;5033052;28;20580;-74
2022/06/22 10:45:08;;;;;;;2.92;1.63;;;27.80;45.80;;;;;;5033523;28;20200;-73
2022/06/22 10:46:09;;;;;;;1.98;1.60;;;27.50;45.50;;;;;;5032720;28;20191;-74
2022/06/22 10:48:55;;;;;;;1.45;1.35;;;27.60;46.20;;;;;;5033441;28;20184;-72
2022/06/22 10:51:50;;;;;;;2.65;1.63;;;27.80;46.90;;;;;;5034565;28;20620;-73
2022/06/22 10:54:39;;;;;;;2.75;1.40;;;27.50;45.10;;;;;;5037902;28;20227;-73
2022/06/22 10:57:18;;;;;;;3.15;1.55;;;27.60;46.20;;;;;;5039722;28;20507;-72
2022/06/22 11:00:10;;;;;;;4.57;1.60;;;27.80;45.50;;;;;;5041394;28;20180;-72
2022/06/22 11:02:49;;;;;;;5.70;1.30;;;27.40;45.70;;;;;;5042798;28;20195;-72
2022/06/22 11:05:25;;;;;;;2.13;1.60;;;27.10;45.50;;;;;;5042518;28;20212;-73
2022/06/22 11:08:09;;;;;;;1.92;1.42;;;27.10;45.80;;;;;;5045942;28;20172;-72
2022/06/22 11:10:49;;;;;;;2.65;1.42;;;27.10;46.80;;;;;;5045858;28;20588;-73
2022/06/22 11:13:52;;;;;;;2.75;1.42;;;27.00;45.70;;;;;;5040924;28;20180;-74
2022/06/22 11:16:55;;;;;;;2.47;1.67;;;27.00;46.80;;;;;;5037397;28;20169;-73
2022/06/22 11:20:04;;;;;;;1.88;1.60;;;27.00;45.90;;;;;;5036401;28;20185;-72
2022/06/22 11:22:40;;;;;;;1.55;1.45;;;27.00;46.30;;;;;;4965443;28;20690;-73
2022/06/22 11:32:05;;;;;;;2.47;1.77;;;27.20;46.90;;;;;;5035824;28;20187;-73
2022/06/22 11:34:48;;;;;;;3.80;1.80;;;27.50;46.60;;;;;;5036128;28;20180;-73
2022/06/22 11:37:35;;;;;;;2.13;1.58;;;27.50;45.90;;;;;;5036111;28;20631;-74
2022/06/22 11:40:31;;;;;;;2.00;1.40;;;27.40;46.30;;;;;;5036155;28;20291;-74
2022/06/22 11:43:31;;;;;;;2.22;1.42;;;27.50;46.80;;;;;;5035847;28;20177;-74
2022/06/22 11:46:07;;;;;;;2.38;1.65;;;27.40;47.10;;;;;;5035727;28;20195;-73
2022/06/22 11:48:48;;;;;;;2.03;1.48;;;27.30;47.10;;;;;;5036042;28;20600;-74
2022/06/22 11:51:32;;;;;;;1.60;1.50;;;27.30;47.40;;;;;;5035670;28;20176;-74
2022/06/22 11:54:35;;;;;;;2.63;1.42;;;27.40;47.60;;;;;;5035691;28;20172;-71
2022/06/22 11:57:15;;;;;;;2.45;1.55;;;27.60;46.70;;;;;;5035581;28;20222;-72
2022/06/22 12:00:08;;;;;;;2.72;1.70;;;27.80;46.80;;;;;;5035509;28;20191;-73
2022/06/22 12:03:09;;;;;;;2.20;1.60;;;27.90;46.00;;;;;;5034923;28;20188;-73
2022/06/22 12:06:05;;;;;;;3.28;1.60;;;27.90;46.30;;;;;;5035230;28;20653;-73
2022/06/22 12:09:04;;;;;;;3.05;1.60;;;27.70;46.20;;;;;;5035547;28;20185;-74
2022/06/22 12:11:46;;;;;;;1.75;1.50;;;28.20;46.40;;;;;;5035379;28;20226;-74
2022/06/22 12:17:42;;;;;;;3.38;1.90;;;28.80;43.00;;;;;;5035007;28;20647;-74
2022/06/22 12:20:43;;;;;;;4.97;2.05;;;29.00;44.70;;;;;;5035152;28;20474;-75
2022/06/22 12:23:45;;;;;;;6.15;2.20;;;29.40;43.10;;;;;;5035398;28;20180;-73
2022/06/22 12:26:16;;;;;;;2.28;1.80;;;29.60;43.30;;;;;;5036750;28;20191;-73
2022/06/22 12:29:10;;;;;;;2.63;1.90;;;29.80;43.50;;;;;;5037144;28;20227;-74
2022/06/22 12:31:40;;;;;;;2.38;1.73;;;29.80;43.00;;;;;;5038430;28;20685;-73
2022/06/22 12:34:30;;;;;;;1.95;1.70;;;29.80;42.30;;;;;;5036462;28;20628;-72
2022/06/22 12:37:19;;;;;;;2.75;1.85;;;29.90;42.00;;;;;;5035159;28;20187;-71
2022/06/22 12:39:52;;;;;;;2.95;1.90;;;29.90;41.60;;;;;;5034868;28;20176;-72
2022/06/22 12:42:37;;;;;;;2.08;1.70;;;29.70;41.50;;;;;;5034789;28;20192;-72
2022/06/22 12:45:19;;;;;;;2.50;1.83;;;29.30;42.30;;;;;;5034991;28;20252;-74
2022/06/22 12:48:09;;;;;;;1.98;1.70;;;28.90;42.60;;;;;;5035104;28;20612;-73
2022/06/22 12:51:12;;;;;;;1.60;1.50;;;28.60;42.90;;;;;;5035286;28;20522;-73
2022/06/22 12:53:48;;;;;;;4.50;1.60;;;28.60;43.90;;;;;;5034970;28;20187;-73
2022/06/22 12:56:32;;;;;;;2.10;1.90;;;28.60;44.50;;;;;;5035416;28;20177;-74
2022/06/22 12:59:08;;;;;;;3.83;2.08;;;28.90;44.80;;;;;;5034816;28;20180;-74
2022/06/22 13:01:35;;;;;;;8.43;2.30;;;28.80;43.50;;;;;;5034726;28;20259;-73
2022/06/22 13:04:09;;;;;;;4.53;3.92;;;28.70;43.70;;;;;;5034124;28;20617;-72
2022/06/22 13:06:41;;;;;;;4.22;2.00;;;28.80;44.20;;;;;;5033860;28;20263;-73
2022/06/22 13:09:09;;;;;;;3.78;1.73;;;29.00;44.10;;;;;;5033747;28;20628;-73
2022/06/22 13:11:36;;;;;;;4.55;1.90;;;29.50;43.20;;;;;;5016666;28;20179;-73
2022/06/22 13:14:14;;;;;;;1.80;1.45;;;29.70;42.80;;;;;;5033912;28;20177;-74
2022/06/22 13:17:06;;;;;;;2.10;1.90;;;29.70;42.00;;;;;;5034136;28;20191;-74
2022/06/22 13:20:12;;;;;;;2.95;2.10;;;29.90;42.30;;;;;;5034425;28;20265;-74
2022/06/22 13:22:47;;;;;;;1.85;1.70;;;29.60;42.50;;;;;;5033985;28;20523;-75
2022/06/22 13:25:18;;;;;;;2.72;1.92;;;30.00;42.30;;;;;;5033413;28;20228;-73
2022/06/22 13:28:03;;;;;;;6.35;1.90;;;30.10;41.50;;;;;;5033841;28;20224;-73
2022/06/22 13:30:39;;;;;;;2.20;2.00;;;29.90;42.20;;;;;;5034035;28;20281;-73
2022/06/22 13:33:12;;;;;;;2.15;1.80;;;29.80;41.60;;;;;;5033769;28;20176;-74
2022/06/22 13:35:54;;;;;;;2.83;2.17;;;29.80;41.40;;;;;;5033781;28;20172;-73
2022/06/22 13:38:35;;;;;;;3.20;1.90;;;29.40;41.50;;;;;;5033737;28;20200;-74
2022/06/22 13:41:19;;;;;;;2.70;1.92;;;29.10;43.60;;;;;;5033939;28;20555;-72
2022/06/22 13:44:07;;;;;;;2.42;1.60;;;28.90;41.60;;;;;;5033449;28;20672;-74
2022/06/22 13:46:49;;;;;;;2.28;1.80;;;28.60;42.70;;;;;;5034218;28;20177;-72
2022/06/22 13:50:16;;;;;;;3.17;1.60;;;28.60;42.90;;;;;;5034258;28;20230;-73
2022/06/22 13:52:49;;;;;;;2.38;1.80;;;28.70;42.70;;;;;;5033601;28;20177;-74
2022/06/22 13:55:39;;;;;;;4.15;1.90;;;28.40;42.40;;;;;;5033556;28;20623;-72
2022/06/22 13:58:21;;;;;;;2.10;1.90;;;28.60;44.40;;;;;;5033761;28;20180;-73
2022/06/22 14:00:50;;;;;;;2.20;2.00;;;28.60;43.10;;;;;;5033449;28;20180;-74
2022/06/22 14:03:29;;;;;;;2.15;1.75;;;28.70;43.10;;;;;;5033163;28;20177;-72
2022/06/22 14:06:10;;;;;;;3.08;2.10;;;28.70;43.90;;;;;;5033462;28;20242;-74
2022/06/22 14:08:52;;;;;;;3.55;2.17;;;28.60;44.90;;;;;;5033859;28;20302;-74
2022/06/22 14:12:02;;;;;;;4.10;2.40;;;28.70;43.30;;;;;;5033765;28;20507;-72
2022/06/22 14:14:48;;;;;;;6.18;2.33;;;28.60;43.90;;;;;;5033123;28;20183;-73